Aérodrome :
LOGIN :

S'inscrire | Disclaimer

   EN    FR    IT 

 










Légende :    VFR   VFR Marginal   IFR   IFR Intensif   IFR Très Intensif
Visi : 
Plafond : 
>= 8 km
>= 3000ft
5 à 8 km
1000 à 3000 ft
1500m à 5 km
500 à 1000 ft
800 à 1500m
200 à 500 ft
< 800m
< 200 ft
Symboles :   Orages  Brouillard  Fortes neiges  Fortes précipitations  Vent > 20 kt
SIGMETs :   Divers  Orages  Givrage  Turbulence  Onde Orograph.  Cendres Volcan.







- Altitude de l'aérodrome : 194 ft
- Code IATA : LME
- Voir les cartes d'approche


LFRM - Le Mans

DERNIER METAR :
  • 231400Z AUTO 31009KT 250V350 9999 -RA FEW009 BKN015 OVC027 18/16 Q1017 NOSIG

METARs EXPIRÉS :
  • 231330Z AUTO 25010KT 210V290 9999 OVC013 21/18 Q1016 BECMG 35010G25KT BKN025
  • 231300Z AUTO 24010G22KT 210V300 9999 OVC010 20/19 Q1016 TEMPO 30015G35KT 3000 -RADZ BECMG BKN025
  • 231230Z AUTO 24010KT 210V280 7000 -DZ BKN013 OVC018 20/18 Q1016 TEMPO 3000 -RADZ BECMG 35010G25KT BKN025
  • 231200Z AUTO 24010KT 210V280 9999 BKN014 OVC019 21/18 Q1016 TEMPO 3000 -RADZ OVC007 BECMG 30015G35KT
  • 231130Z AUTO 25011G22KT 9999 OVC012 20/18 Q1016 TEMPO 3000 -RADZ OVC007 BECMG 30015G35KT

Prévision TAF périmée.
Pas de NOTAMs connus pour ce terrain.
2 SIGMETs publiés pour la FIR Paris (LFFF) :
 
Turbulence forte
LFFF SIGMET 2 VALID 231200/231600 LFPW
LFFF PARIS FIR/UIR SEV TURB FCST WI N5030 E00345 - N4930 E00600 - N4900 E00500 - N4945 E00300 - N5030 E00345 SFC/FL050 STNR NC=
Turbulence forte
LFFF SIGMET 1 VALID 231100/231500 LFPW
LFFF PARIS FIR/UIR SEV TURB FCST WI N4945 W00015 - N5000 W00015 - N5030 E00030 - N4945 W00015 FL350/430 STNR NC=



MET'MAP, la Météo Aéronautique d'un coup d'oeil ! - Copyright ORBIFLY Décembre 2007 - Disclaimer

ORBIFLY MET'MAP TEAM :

Programmation & Développement : Alexandra Zaïnal
Conception & Développement : Baudouin d'Aumeries
Co-Programmation & Développement : Marc-Olivier Méhu
Soutien technique & logistique : Manuel Goepfert

Contact : metmap@orbifly.com




SOURCES & CREDITS :

   NOAA